Hauptseite
METAR-TAF:

METAR-TAF

Flughäfen :

Rheine, Deutschland

Heeresflugplatz Rheine-Bentlage

Breite: 52-18N, Länge: 007-23E, Höhe: 40 m

Beobachtung

Neuester Wetterbericht von vor 37 Minuten, um 08:20 UTC
Wind 8 kt aus Süd/Südwest
Temperatur 11°C
Luftfeuchtigkeit 66%
Luftdruck 1001 hPa

METAR: ETHE 270820Z AUTO 20008KT //// // ////// 11/05 Q1001 ///

Zeit: 09:57 (08:57 UTC)


TAF: fehlend

Wetterbeobachtungen und Prognosen von mehr als 4000 Flughäfen (METAR und TAF Bericht).

Die verfügbaren Stationen werden durch gelbe und rote Markierungen auf der Karte dargestellt.

Führen Sie die Maus auf sie, um den Namen der Station zu sehen.

Darauf klicken, um die Beobachtung von Wetterbeobachtungen und Prognosen zu sehen.

Um die Karte zu ändern : klicken Sie auf den grünen Tasten mit einem schwarzen Kreuz Zum Vergrößern, auf den grünen Button mit einem Gedankenstrich zu verkleinern, oder auf die grünen Pfeile für benachbarte Karten.


METAR-TAF: